Time;durP1;ratioP1;P1;durP2;ratioP2;P2;SDS_P1;SDS_P2;PMS_P1;PMS_P2;Temp;Humidity;BMP_temperature;BMP_pressure;BME280_temperature;BME280_humidity;BME280_pressure;Samples;Min_cycle;Max_cycle;Signal;HPM_P1;HPM_P2
2023/12/26 00:01:49;;;;;;;5.70;1.15;;;8.20;99.90;;;;;;4956575;28;20074;-70
2023/12/26 00:04:15;;;;;;;2.78;0.95;;;8.20;99.90;;;;;;4969778;28;20022;-70
2023/12/26 00:06:43;;;;;;;4.10;1.17;;;8.20;99.90;;;;;;4962057;28;20034;-70
2023/12/26 00:09:11;;;;;;;3.83;0.90;;;8.10;99.90;;;;;;4963300;28;20034;-70
2023/12/26 00:11:46;;;;;;;5.93;1.17;;;8.10;99.90;;;;;;4959883;28;20086;-69
2023/12/26 00:14:13;;;;;;;4.68;1.30;;;8.10;99.90;;;;;;4960897;28;20024;-69
2023/12/26 00:16:41;;;;;;;5.97;1.27;;;8.10;99.90;;;;;;4964178;28;20039;-70
2023/12/26 00:19:07;;;;;;;3.35;1.15;;;8.00;99.90;;;;;;4964660;28;20030;-70
2023/12/26 00:21:32;;;;;;;4.55;1.30;;;8.00;99.90;;;;;;4962647;28;20038;-72
2023/12/26 00:23:58;;;;;;;5.75;1.38;;;8.00;99.90;;;;;;4962853;28;20023;-70
2023/12/26 00:26:24;;;;;;;5.30;1.38;;;8.00;99.90;;;;;;4967942;28;20031;-71
2023/12/26 00:28:49;;;;;;;1.98;0.95;;;8.00;99.90;;;;;;4963104;28;20037;-70
2023/12/26 00:31:15;;;;;;;6.38;1.77;;;7.90;99.90;;;;;;4963320;28;20031;-70
2023/12/26 00:33:44;;;;;;;3.97;1.48;;;7.90;99.90;;;;;;4963401;28;20043;-70
2023/12/26 00:36:17;;;;;;;4.72;1.27;;;7.90;99.90;;;;;;4965838;28;20029;-71
2023/12/26 00:38:46;;;;;;;3.78;1.60;;;7.90;99.90;;;;;;4961124;28;20381;-71
2023/12/26 00:41:14;;;;;;;4.38;1.20;;;7.80;99.90;;;;;;4963947;28;20078;-71
2023/12/26 00:43:39;;;;;;;3.35;0.93;;;7.70;99.90;;;;;;4959792;28;20428;-71
2023/12/26 00:46:06;;;;;;;2.05;1.30;;;7.70;99.90;;;;;;4965024;28;20094;-71
2023/12/26 00:48:32;;;;;;;7.93;1.13;;;7.70;99.90;;;;;;4953027;28;20030;-71
2023/12/26 00:50:58;;;;;;;3.30;0.98;;;7.60;99.90;;;;;;4964537;28;20030;-70
2023/12/26 00:53:24;;;;;;;3.97;1.30;;;7.60;99.90;;;;;;4963314;28;20035;-70
2023/12/26 00:55:50;;;;;;;2.67;1.15;;;7.70;99.90;;;;;;4961613;28;20440;-72
2023/12/26 00:58:16;;;;;;;5.30;1.00;;;7.70;99.90;;;;;;4962017;28;20109;-71
2023/12/26 01:00:42;;;;;;;2.72;0.98;;;7.70;99.90;;;;;;4964412;28;20099;-72
2023/12/26 01:03:09;;;;;;;2.95;1.10;;;7.70;99.90;;;;;;4964317;28;20448;-72
2023/12/26 01:05:34;;;;;;;5.35;1.48;;;7.70;99.90;;;;;;4960506;28;20023;-72
2023/12/26 01:08:00;;;;;;;5.18;1.20;;;7.70;99.90;;;;;;4964237;28;20496;-71
2023/12/26 01:10:26;;;;;;;2.78;0.90;;;7.80;99.90;;;;;;4965102;28;20031;-72
2023/12/26 01:12:51;;;;;;;6.32;1.38;;;7.70;99.90;;;;;;4967975;28;20034;-72
2023/12/26 01:15:17;;;;;;;5.60;1.30;;;7.70;99.90;;;;;;4971576;28;20047;-71
2023/12/26 01:17:43;;;;;;;3.17;1.50;;;7.80;99.90;;;;;;4960638;28;20100;-72
2023/12/26 01:20:09;;;;;;;4.18;1.63;;;7.80;99.90;;;;;;4966334;28;20031;-71
2023/12/26 01:22:35;;;;;;;6.63;1.70;;;7.70;99.90;;;;;;4970105;28;20034;-72
2023/12/26 01:25:00;;;;;;;3.67;1.20;;;7.80;99.90;;;;;;4970879;28;20031;-70
2023/12/26 01:27:26;;;;;;;1.40;1.10;;;7.70;99.90;;;;;;4960052;28;20023;-70
2023/12/26 01:29:51;;;;;;;3.58;1.17;;;7.70;99.90;;;;;;4964712;28;20104;-70
2023/12/26 01:32:19;;;;;;;3.22;0.98;;;7.70;99.90;;;;;;4964754;28;20528;-70
2023/12/26 01:34:45;;;;;;;4.70;1.10;;;7.60;99.90;;;;;;4957961;28;20212;-70
2023/12/26 01:37:10;;;;;;;3.15;0.98;;;7.50;99.90;;;;;;4966564;28;20468;-70
2023/12/26 01:39:36;;;;;;;4.88;1.10;;;7.50;99.90;;;;;;4967355;28;20104;-71
2023/12/26 01:42:02;;;;;;;3.03;1.00;;;7.50;99.90;;;;;;4960957;28;20034;-71
2023/12/26 01:44:27;;;;;;;4.70;1.63;;;7.40;99.90;;;;;;4964596;28;20032;-71
2023/12/26 01:46:54;;;;;;;3.40;1.33;;;7.40;99.90;;;;;;4968399;28;20023;-71
2023/12/26 01:49:20;;;;;;;2.70;1.38;;;7.40;99.90;;;;;;4972223;28;20027;-70
2023/12/26 01:51:48;;;;;;;5.90;1.23;;;7.40;99.90;;;;;;4963871;28;20067;-70
2023/12/26 01:54:14;;;;;;;2.55;1.13;;;7.30;99.90;;;;;;4971708;28;20766;-71
2023/12/26 01:56:40;;;;;;;2.80;1.20;;;7.30;99.90;;;;;;4973719;28;20488;-70
2023/12/26 01:59:06;;;;;;;8.52;1.52;;;7.30;99.90;;;;;;4964444;28;20540;-72
2023/12/26 02:01:32;;;;;;;6.05;1.23;;;7.30;99.90;;;;;;4963572;28;20030;-71
2023/12/26 02:03:59;;;;;;;3.13;1.25;;;7.30;99.90;;;;;;4970462;28;20077;-69
2023/12/26 02:06:25;;;;;;;1.63;1.02;;;7.30;99.90;;;;;;4967336;28;20027;-70
2023/12/26 02:08:50;;;;;;;2.80;1.25;;;7.30;99.90;;;;;;4962550;28;20053;-69
2023/12/26 02:11:16;;;;;;;2.80;0.98;;;7.30;99.90;;;;;;4970100;28;20026;-69
2023/12/26 02:13:42;;;;;;;1.73;1.10;;;7.40;99.90;;;;;;4971084;28;20018;-70
2023/12/26 02:16:15;;;;;;;4.93;1.00;;;7.40;99.90;;;;;;4969320;28;20047;-69
2023/12/26 02:18:42;;;;;;;2.65;1.20;;;7.50;99.90;;;;;;4969564;28;20027;-69
2023/12/26 02:21:07;;;;;;;5.18;1.00;;;7.60;99.90;;;;;;4971698;28;20030;-70
2023/12/26 02:23:34;;;;;;;4.05;1.10;;;7.60;99.90;;;;;;4971278;28;20480;-71
2023/12/26 02:26:02;;;;;;;2.97;1.20;;;7.60;99.90;;;;;;4970660;28;20020;-70
2023/12/26 02:28:29;;;;;;;2.00;1.20;;;7.60;99.90;;;;;;4967873;28;20026;-71
2023/12/26 02:30:56;;;;;;;2.50;1.00;;;7.70;99.90;;;;;;4973543;28;20035;-71
2023/12/26 02:33:22;;;;;;;4.43;1.00;;;7.60;99.90;;;;;;4960479;28;20360;-70
2023/12/26 02:35:48;;;;;;;1.65;1.25;;;7.60;99.90;;;;;;4962434;28;20027;-71
2023/12/26 02:38:14;;;;;;;4.30;1.08;;;7.50;99.90;;;;;;4970686;28;20053;-70
2023/12/26 02:40:39;;;;;;;1.45;0.70;;;7.60;99.90;;;;;;4970757;28;20514;-70
2023/12/26 02:43:05;;;;;;;1.90;1.02;;;7.60;99.90;;;;;;4961874;28;20041;-70
2023/12/26 02:45:30;;;;;;;3.50;1.10;;;7.60;99.90;;;;;;4966191;28;20054;-71
2023/12/26 02:47:56;;;;;;;2.65;1.08;;;7.60;99.90;;;;;;4971058;28;20058;-71
2023/12/26 02:50:22;;;;;;;1.75;0.95;;;7.60;99.90;;;;;;4973017;28;20030;-70
2023/12/26 02:52:48;;;;;;;1.35;0.90;;;7.60;99.90;;;;;;4973758;28;20181;-70
2023/12/26 02:55:14;;;;;;;2.90;0.98;;;7.60;99.90;;;;;;4970905;28;20102;-70
2023/12/26 02:57:39;;;;;;;2.03;0.90;;;7.50;99.90;;;;;;4969966;28;20034;-70
2023/12/26 03:00:06;;;;;;;2.78;1.10;;;7.60;99.90;;;;;;4960441;28;20028;-70
2023/12/26 03:02:33;;;;;;;2.47;0.80;;;7.50;99.90;;;;;;4965499;28;20054;-70
2023/12/26 03:05:01;;;;;;;2.33;0.80;;;7.60;99.90;;;;;;4972614;28;20035;-70
2023/12/26 03:07:26;;;;;;;3.17;0.88;;;7.50;99.90;;;;;;4958593;28;20045;-70
2023/12/26 03:09:52;;;;;;;2.10;1.10;;;7.60;99.90;;;;;;4961892;28;20461;-70
2023/12/26 03:12:18;;;;;;;2.63;1.00;;;7.60;99.90;;;;;;4969636;28;20050;-70
2023/12/26 03:14:43;;;;;;;2.08;0.90;;;7.60;99.90;;;;;;4973344;28;20031;-70
2023/12/26 03:17:09;;;;;;;3.05;0.98;;;7.60;99.90;;;;;;4964083;28;20396;-70
2023/12/26 03:19:35;;;;;;;2.50;1.20;;;7.60;99.90;;;;;;4971914;28;20026;-70
2023/12/26 03:22:00;;;;;;;3.20;0.93;;;7.60;99.90;;;;;;4971837;28;20027;-70
2023/12/26 03:24:27;;;;;;;2.65;0.73;;;7.60;99.90;;;;;;4972185;28;20078;-71
2023/12/26 03:26:52;;;;;;;2.88;0.73;;;7.60;99.90;;;;;;4964745;28;20532;-70
2023/12/26 03:29:18;;;;;;;2.72;0.85;;;7.60;99.90;;;;;;4965662;28;20039;-71
2023/12/26 03:31:45;;;;;;;4.20;0.75;;;7.60;99.90;;;;;;4970937;28;20058;-71
2023/12/26 03:34:11;;;;;;;5.50;1.23;;;7.60;99.90;;;;;;4968214;28;20027;-71
2023/12/26 03:36:45;;;;;;;2.33;0.80;;;7.70;99.90;;;;;;4965760;28;20061;-71
2023/12/26 03:39:11;;;;;;;3.53;0.93;;;7.70;99.90;;;;;;4971639;28;20031;-71
2023/12/26 03:41:37;;;;;;;1.77;0.90;;;7.70;99.90;;;;;;4965109;28;20086;-70
2023/12/26 03:44:03;;;;;;;2.80;0.73;;;7.80;99.90;;;;;;4961857;28;20031;-70
2023/12/26 03:46:28;;;;;;;4.32;0.70;;;7.90;99.90;;;;;;4969140;28;20031;-71
2023/12/26 03:48:54;;;;;;;4.55;1.15;;;7.90;99.90;;;;;;4973273;28;20027;-71
2023/12/26 03:51:19;;;;;;;3.03;1.30;;;7.90;99.90;;;;;;4963446;28;20026;-70
2023/12/26 03:53:45;;;;;;;2.45;1.00;;;7.90;99.90;;;;;;4970144;28;20081;-70
2023/12/26 03:56:11;;;;;;;3.88;0.93;;;7.90;99.90;;;;;;4972019;28;20023;-70
2023/12/26 03:58:36;;;;;;;6.45;1.08;;;8.00;99.90;;;;;;4966876;28;20023;-70
2023/12/26 04:01:02;;;;;;;2.50;1.17;;;7.90;99.90;;;;;;4965489;28;20054;-70
2023/12/26 04:03:28;;;;;;;6.03;1.10;;;7.90;99.90;;;;;;4966534;28;20404;-71
2023/12/26 04:05:54;;;;;;;5.50;1.40;;;7.90;99.90;;;;;;4968339;28;20058;-71
2023/12/26 04:08:19;;;;;;;4.93;0.75;;;8.00;99.90;;;;;;4958191;28;20430;-71
2023/12/26 04:10:45;;;;;;;3.47;0.98;;;8.00;99.90;;;;;;4966266;28;20018;-71
2023/12/26 04:13:11;;;;;;;4.60;1.00;;;7.90;99.90;;;;;;4970272;28;20035;-69
2023/12/26 04:15:36;;;;;;;2.15;0.90;;;7.90;99.90;;;;;;4955249;28;20097;-70
2023/12/26 04:18:02;;;;;;;3.35;1.25;;;7.90;99.90;;;;;;4965430;28;20029;-71
2023/12/26 04:20:28;;;;;;;3.22;0.90;;;7.90;99.90;;;;;;4967365;28;20477;-71
2023/12/26 04:22:54;;;;;;;4.47;1.10;;;7.80;99.90;;;;;;4972096;28;20054;-71
2023/12/26 04:25:22;;;;;;;4.05;1.30;;;7.80;99.90;;;;;;4971609;28;20468;-70
2023/12/26 04:27:47;;;;;;;2.60;1.05;;;7.80;99.90;;;;;;4961473;28;20336;-70
2023/12/26 04:30:13;;;;;;;6.32;1.10;;;7.70;99.90;;;;;;4971163;28;20085;-70
2023/12/26 04:32:39;;;;;;;2.72;1.10;;;7.70;99.90;;;;;;4966028;28;20041;-70
2023/12/26 04:35:04;;;;;;;5.05;1.23;;;7.70;99.90;;;;;;4964558;28;20112;-71
2023/12/26 04:37:30;;;;;;;5.40;1.40;;;7.70;99.90;;;;;;4965095;28;20033;-71
2023/12/26 04:39:56;;;;;;;3.45;1.00;;;7.70;99.90;;;;;;4968156;28;20098;-71
2023/12/26 04:42:22;;;;;;;2.55;1.02;;;7.70;99.90;;;;;;4964971;28;20114;-70
2023/12/26 04:44:47;;;;;;;3.70;1.13;;;7.70;99.90;;;;;;4964625;28;20033;-71
2023/12/26 04:47:13;;;;;;;5.75;1.25;;;7.70;99.90;;;;;;4969309;28;20030;-71
2023/12/26 04:49:39;;;;;;;4.40;1.30;;;7.70;99.90;;;;;;4967967;28;20027;-71
2023/12/26 04:52:05;;;;;;;6.60;1.50;;;7.70;99.90;;;;;;4964873;28;20034;-71
2023/12/26 04:54:31;;;;;;;5.97;1.60;;;7.70;99.90;;;;;;4967877;28;20031;-70
2023/12/26 04:56:56;;;;;;;4.55;1.38;;;7.70;99.90;;;;;;4971067;28;20027;-71
2023/12/26 04:59:22;;;;;;;6.00;1.20;;;7.80;99.90;;;;;;4961096;28;20426;-71
2023/12/26 05:01:47;;;;;;;6.32;1.55;;;7.80;99.90;;;;;;4959552;28;20532;-70
2023/12/26 05:04:13;;;;;;;3.58;1.58;;;7.80;99.90;;;;;;4968748;28;20081;-70
2023/12/26 05:06:39;;;;;;;6.82;1.58;;;7.70;99.90;;;;;;4965680;28;20380;-70
2023/12/26 05:09:04;;;;;;;7.10;1.63;;;7.80;99.90;;;;;;4963052;28;20034;-70
2023/12/26 05:11:30;;;;;;;7.88;1.55;;;7.80;99.90;;;;;;4964238;28;20419;-70
2023/12/26 05:13:55;;;;;;;4.97;1.85;;;7.80;99.90;;;;;;4969513;28;20442;-70
2023/12/26 05:16:21;;;;;;;7.25;1.42;;;7.80;99.90;;;;;;4962949;28;20512;-70
2023/12/26 05:18:47;;;;;;;4.10;1.40;;;7.80;99.90;;;;;;4968719;28;20111;-70
2023/12/26 05:21:20;;;;;;;6.22;1.13;;;7.90;99.90;;;;;;4967978;28;20470;-70
2023/12/26 05:23:46;;;;;;;3.55;1.17;;;7.90;99.90;;;;;;4967033;28;20102;-70
2023/12/26 05:26:12;;;;;;;5.88;1.77;;;7.90;99.90;;;;;;4957521;28;20099;-70
2023/12/26 05:28:38;;;;;;;4.43;1.20;;;8.00;99.90;;;;;;4963291;28;20031;-70
2023/12/26 05:31:04;;;;;;;6.78;1.13;;;8.10;99.90;;;;;;4970115;28;20027;-70
2023/12/26 05:33:30;;;;;;;6.30;1.90;;;8.10;99.90;;;;;;4957381;28;20043;-70
2023/12/26 05:35:55;;;;;;;6.28;1.48;;;8.10;99.90;;;;;;4960193;28;20449;-71
2023/12/26 05:38:21;;;;;;;7.25;1.70;;;8.10;99.90;;;;;;4968151;28;20027;-70
2023/12/26 05:40:47;;;;;;;4.85;1.38;;;8.20;99.90;;;;;;4963506;28;20641;-70
2023/12/26 05:43:13;;;;;;;9.38;1.48;;;8.20;99.90;;;;;;4958157;28;20034;-71
2023/12/26 05:45:38;;;;;;;5.05;0.98;;;8.20;99.90;;;;;;4962616;28;20403;-70
2023/12/26 05:48:07;;;;;;;5.88;1.23;;;8.30;99.90;;;;;;4969528;28;20023;-71
2023/12/26 05:50:33;;;;;;;9.75;1.63;;;8.40;99.90;;;;;;4961767;28;20034;-71
2023/12/26 05:52:58;;;;;;;6.53;1.15;;;8.40;99.90;;;;;;4970748;28;20038;-71
2023/12/26 05:55:24;;;;;;;4.32;1.05;;;8.50;99.90;;;;;;4966902;28;20027;-70
2023/12/26 05:57:49;;;;;;;7.68;1.58;;;8.50;99.90;;;;;;4965007;28;20074;-71
2023/12/26 06:00:16;;;;;;;7.03;1.55;;;8.50;99.90;;;;;;4957809;28;20397;-70
2023/12/26 06:02:42;;;;;;;5.28;1.13;;;8.50;99.90;;;;;;4963803;28;20039;-70
2023/12/26 06:05:07;;;;;;;5.97;1.27;;;8.40;99.90;;;;;;4969170;28;20495;-71
2023/12/26 06:07:33;;;;;;;12.27;1.70;;;8.40;99.90;;;;;;4956507;28;20038;-71
2023/12/26 06:09:59;;;;;;;4.25;1.30;;;8.30;99.90;;;;;;4959672;28;20062;-71
2023/12/26 06:12:25;;;;;;;5.82;1.67;;;8.30;99.90;;;;;;4958368;28;20062;-71
2023/12/26 06:14:52;;;;;;;4.03;1.33;;;8.30;99.90;;;;;;4964387;28;20070;-71
2023/12/26 06:17:19;;;;;;;4.72;1.38;;;8.20;99.90;;;;;;4968049;28;20027;-71
2023/12/26 06:19:45;;;;;;;4.82;1.48;;;8.20;99.90;;;;;;4967470;28;20023;-71
2023/12/26 06:22:10;;;;;;;4.90;1.50;;;8.20;99.90;;;;;;4969758;28;20061;-71
2023/12/26 06:24:36;;;;;;;8.05;1.40;;;8.20;99.90;;;;;;4969441;28;20073;-72
2023/12/26 06:27:02;;;;;;;5.32;1.50;;;8.20;99.90;;;;;;4963670;28;20392;-71
2023/12/26 06:29:28;;;;;;;3.85;1.17;;;8.20;99.90;;;;;;4965246;28;20472;-72
2023/12/26 06:31:53;;;;;;;12.32;1.92;;;8.20;99.90;;;;;;4968586;28;20035;-71
2023/12/26 06:34:19;;;;;;;7.25;1.55;;;8.10;99.90;;;;;;4964607;28;20039;-71
2023/12/26 06:36:45;;;;;;;4.57;1.10;;;8.20;99.90;;;;;;4965002;28;20022;-71
2023/12/26 06:39:12;;;;;;;8.02;1.42;;;8.30;99.90;;;;;;4973084;28;20029;-71
2023/12/26 06:41:39;;;;;;;8.65;1.73;;;8.30;99.90;;;;;;4964079;28;20102;-72
2023/12/26 06:44:05;;;;;;;4.65;1.40;;;8.30;99.90;;;;;;4962718;28;20473;-70
2023/12/26 06:46:30;;;;;;;5.22;1.20;;;8.30;99.90;;;;;;4969522;28;20058;-71
2023/12/26 06:48:56;;;;;;;4.07;1.27;;;8.20;99.90;;;;;;4967019;28;20031;-70
2023/12/26 06:51:22;;;;;;;6.07;1.25;;;8.20;99.90;;;;;;4972143;28;20464;-71
2023/12/26 06:53:47;;;;;;;6.47;1.67;;;8.10;99.90;;;;;;4970674;28;20035;-71
2023/12/26 06:56:13;;;;;;;7.50;1.30;;;8.10;99.90;;;;;;4965151;28;20034;-71
2023/12/26 06:58:39;;;;;;;7.72;1.70;;;8.20;99.90;;;;;;4964031;28;20102;-71
2023/12/26 07:01:09;;;;;;;5.80;1.30;;;8.30;99.90;;;;;;4967497;28;20023;-71
2023/12/26 07:03:34;;;;;;;5.85;1.60;;;8.30;99.90;;;;;;4962328;28;20034;-71
2023/12/26 07:06:00;;;;;;;5.28;1.42;;;8.30;99.90;;;;;;4964443;28;20353;-70
2023/12/26 07:08:26;;;;;;;8.73;1.77;;;8.30;99.90;;;;;;4965065;28;20420;-71
2023/12/26 07:10:51;;;;;;;5.93;1.10;;;8.30;99.90;;;;;;4965501;28;20098;-72
2023/12/26 07:13:17;;;;;;;7.35;2.13;;;8.30;99.90;;;;;;4977918;28;20055;-70
2023/12/26 07:15:43;;;;;;;8.25;1.48;;;8.30;99.90;;;;;;4982068;28;20047;-70
2023/12/26 07:18:09;;;;;;;6.45;1.55;;;8.20;99.90;;;;;;4985016;28;20120;-71
2023/12/26 07:20:35;;;;;;;8.63;1.48;;;8.10;99.90;;;;;;4980761;28;20058;-70
2023/12/26 07:23:00;;;;;;;5.57;1.55;;;8.10;99.90;;;;;;4967014;28;20439;-70
2023/12/26 07:25:27;;;;;;;7.18;1.67;;;8.10;99.90;;;;;;4967975;28;20031;-70
2023/12/26 07:27:52;;;;;;;3.97;1.15;;;8.10;99.90;;;;;;4965910;28;20040;-71
2023/12/26 07:30:18;;;;;;;6.93;1.23;;;8.00;99.90;;;;;;4964076;28;20031;-70
2023/12/26 07:32:43;;;;;;;6.38;1.52;;;8.10;99.90;;;;;;4963752;28;20043;-71
2023/12/26 07:35:09;;;;;;;6.47;1.50;;;8.10;99.90;;;;;;4966632;28;20484;-70
2023/12/26 07:37:35;;;;;;;7.70;1.50;;;8.10;99.90;;;;;;4960134;28;20054;-71
2023/12/26 07:40:00;;;;;;;5.13;1.33;;;8.00;99.90;;;;;;4964274;28;20082;-71
2023/12/26 07:42:26;;;;;;;6.70;1.60;;;8.00;99.90;;;;;;4963151;28;20027;-72
2023/12/26 07:44:51;;;;;;;6.00;1.45;;;7.90;99.90;;;;;;4961025;28;20081;-71
2023/12/26 07:47:17;;;;;;;3.45;1.48;;;8.00;99.90;;;;;;4968392;28;20908;-70
2023/12/26 07:49:43;;;;;;;4.65;1.27;;;8.00;99.90;;;;;;4963421;28;20114;-71
2023/12/26 07:52:08;;;;;;;4.93;1.15;;;8.00;99.90;;;;;;4967889;28;20053;-71
2023/12/26 07:54:34;;;;;;;3.58;1.25;;;8.00;99.90;;;;;;4966841;28;20030;-71
2023/12/26 07:56:59;;;;;;;5.78;1.48;;;8.00;99.90;;;;;;4966047;28;20031;-69
2023/12/26 07:59:25;;;;;;;6.78;1.55;;;8.10;99.90;;;;;;4969640;28;20035;-70
2023/12/26 08:01:50;;;;;;;4.05;1.17;;;8.10;99.90;;;;;;4965029;28;20419;-70
2023/12/26 08:04:16;;;;;;;9.32;1.58;;;8.20;99.90;;;;;;4972738;28;20050;-70
2023/12/26 08:06:42;;;;;;;5.10;1.45;;;8.20;99.90;;;;;;4963538;28;20027;-70
2023/12/26 08:09:08;;;;;;;3.95;1.45;;;8.20;99.90;;;;;;4958422;28;20055;-70
2023/12/26 08:11:35;;;;;;;5.60;1.50;;;8.10;99.90;;;;;;4967609;28;20181;-70
2023/12/26 08:14:00;;;;;;;4.30;1.58;;;8.20;99.90;;;;;;4969914;28;20026;-70
2023/12/26 08:16:26;;;;;;;5.97;1.63;;;8.10;99.90;;;;;;4968986;28;20104;-70
2023/12/26 08:18:51;;;;;;;3.63;1.50;;;8.10;99.90;;;;;;4969509;28;20038;-70
2023/12/26 08:21:17;;;;;;;6.57;1.73;;;8.20;99.90;;;;;;4967376;28;20035;-70
2023/12/26 08:23:43;;;;;;;7.13;1.70;;;8.30;99.90;;;;;;4967885;28;20106;-70
2023/12/26 08:26:08;;;;;;;9.45;1.77;;;8.40;99.90;;;;;;4972650;28;20455;-72
2023/12/26 08:28:34;;;;;;;9.05;3.03;;;8.50;99.90;;;;;;4966779;28;20026;-70
2023/12/26 08:31:00;;;;;;;9.65;1.67;;;8.60;99.90;;;;;;4963297;28;20038;-71
2023/12/26 08:33:25;;;;;;;8.82;1.95;;;8.70;99.90;;;;;;4963926;28;20034;-72
2023/12/26 08:35:51;;;;;;;4.43;1.75;;;8.70;99.90;;;;;;4956463;28;20070;-70
2023/12/26 08:38:17;;;;;;;4.65;1.48;;;8.80;99.90;;;;;;4970768;28;20045;-70
2023/12/26 08:40:43;;;;;;;4.95;2.05;;;8.80;99.90;;;;;;4937876;28;20041;-71
2023/12/26 08:43:08;;;;;;;11.00;1.80;;;8.80;99.90;;;;;;4954128;28;20063;-72
2023/12/26 08:45:35;;;;;;;7.25;1.73;;;8.90;99.90;;;;;;4960405;28;20023;-70
2023/12/26 08:48:02;;;;;;;4.15;1.35;;;8.90;99.90;;;;;;4955399;28;20028;-70
2023/12/26 08:50:27;;;;;;;5.03;1.50;;;8.90;99.90;;;;;;4966134;28;20034;-70
2023/12/26 08:52:53;;;;;;;10.25;1.75;;;9.00;99.90;;;;;;4961269;28;20077;-71
2023/12/26 08:55:19;;;;;;;5.63;1.52;;;9.00;99.90;;;;;;4969705;28;20058;-70
2023/12/26 08:57:45;;;;;;;8.07;1.77;;;9.00;99.90;;;;;;4967258;28;20090;-70
2023/12/26 09:00:13;;;;;;;9.00;2.22;;;9.10;99.90;;;;;;4957775;28;20027;-71
2023/12/26 09:02:40;;;;;;;7.28;1.75;;;9.20;99.90;;;;;;4964094;28;20122;-73
2023/12/26 09:05:06;;;;;;;6.22;1.65;;;9.20;99.90;;;;;;4968471;28;20039;-71
2023/12/26 09:07:31;;;;;;;8.90;1.58;;;9.20;99.90;;;;;;4955960;28;20139;-72
2023/12/26 09:09:57;;;;;;;6.20;1.65;;;9.20;99.90;;;;;;4968716;28;20058;-71
2023/12/26 09:12:22;;;;;;;6.45;1.83;;;9.30;99.90;;;;;;4956824;28;20043;-76
2023/12/26 09:14:48;;;;;;;8.95;1.58;;;9.30;99.90;;;;;;4961846;28;20041;-79
2023/12/26 09:17:14;;;;;;;3.53;1.38;;;9.30;99.90;;;;;;4956115;28;20023;-76
2023/12/26 09:19:40;;;;;;;5.18;1.30;;;9.30;99.90;;;;;;4969574;28;20027;-77
2023/12/26 09:22:06;;;;;;;3.45;1.33;;;9.30;99.90;;;;;;4962442;28;20028;-78
2023/12/26 09:24:32;;;;;;;9.27;2.25;;;9.30;99.90;;;;;;4958937;28;20490;-75
2023/12/26 09:26:58;;;;;;;5.68;1.73;;;9.30;99.90;;;;;;4963410;28;20019;-74
2023/12/26 09:29:24;;;;;;;6.10;1.40;;;9.40;99.90;;;;;;4968233;28;20042;-74
2023/12/26 09:31:49;;;;;;;6.35;1.50;;;9.40;99.90;;;;;;4963351;28;20035;-74
2023/12/26 09:34:15;;;;;;;4.55;1.38;;;9.40;99.90;;;;;;4971075;28;20094;-73
2023/12/26 09:36:40;;;;;;;6.28;1.42;;;9.40;99.90;;;;;;4968903;28;20058;-74
2023/12/26 09:39:06;;;;;;;4.85;1.63;;;9.50;99.90;;;;;;4965009;28;20089;-73
2023/12/26 09:41:32;;;;;;;6.07;1.48;;;9.50;99.90;;;;;;4964704;28;20034;-73
2023/12/26 09:43:57;;;;;;;6.93;1.25;;;9.60;99.90;;;;;;4970220;28;20435;-73
2023/12/26 09:46:23;;;;;;;2.75;1.35;;;9.60;99.90;;;;;;4962704;28;20548;-72
2023/12/26 09:48:49;;;;;;;5.80;1.23;;;9.60;99.90;;;;;;4966039;28;20035;-71
2023/12/26 09:51:21;;;;;;;4.22;1.02;;;9.70;99.90;;;;;;4970070;28;20057;-74
2023/12/26 09:53:51;;;;;;;6.20;1.20;;;9.70;99.90;;;;;;4969031;28;20027;-73
2023/12/26 09:56:17;;;;;;;2.58;1.20;;;9.70;99.90;;;;;;4963526;28;20031;-72
2023/12/26 09:58:43;;;;;;;3.03;1.05;;;9.80;99.90;;;;;;4967511;28;20031;-74
2023/12/26 10:01:13;;;;;;;4.57;1.00;;;9.80;99.90;;;;;;4968894;28;20417;-71
2023/12/26 10:03:39;;;;;;;2.42;1.00;;;9.80;99.90;;;;;;4957233;28;20441;-70
2023/12/26 10:06:06;;;;;;;3.97;1.20;;;9.80;99.90;;;;;;4966675;28;20058;-71
2023/12/26 10:08:32;;;;;;;6.13;1.35;;;9.90;99.90;;;;;;4969745;28;20031;-70
2023/12/26 10:10:58;;;;;;;3.95;1.23;;;10.00;99.90;;;;;;4963330;28;20038;-73
2023/12/26 10:13:23;;;;;;;4.43;1.20;;;10.00;99.90;;;;;;4965448;28;20031;-72
2023/12/26 10:15:49;;;;;;;8.95;1.60;;;10.00;99.90;;;;;;4970592;28;20054;-70
2023/12/26 10:18:16;;;;;;;4.05;1.38;;;10.00;99.90;;;;;;4972550;28;20057;-74
2023/12/26 10:20:42;;;;;;;4.80;0.95;;;10.10;99.90;;;;;;4967370;28;20027;-69
2023/12/26 10:23:08;;;;;;;2.30;0.98;;;10.10;99.90;;;;;;4970953;28;20114;-70
2023/12/26 10:25:34;;;;;;;5.78;1.15;;;10.10;99.90;;;;;;4972961;28;20027;-70
2023/12/26 10:28:00;;;;;;;6.22;1.02;;;10.10;99.90;;;;;;4965328;28;20031;-73
2023/12/26 10:30:26;;;;;;;3.53;1.10;;;10.20;99.90;;;;;;4965312;28;20074;-70
2023/12/26 10:32:59;;;;;;;4.55;1.20;;;10.20;99.90;;;;;;4972174;28;20045;-71
2023/12/26 10:35:25;;;;;;;2.72;0.95;;;10.30;99.90;;;;;;4961843;28;20040;-69
2023/12/26 10:37:53;;;;;;;2.03;0.80;;;10.30;99.90;;;;;;4961745;28;20095;-69
2023/12/26 10:40:18;;;;;;;2.63;0.80;;;10.30;99.90;;;;;;4969904;28;20026;-72
2023/12/26 10:42:48;;;;;;;1.70;0.82;;;10.40;99.90;;;;;;4973081;28;20608;-69
2023/12/26 10:45:17;;;;;;;2.72;1.05;;;10.30;99.90;;;;;;4971368;28;20026;-70
2023/12/26 10:47:44;;;;;;;4.65;1.10;;;10.30;99.90;;;;;;4961833;28;20093;-71
2023/12/26 10:50:12;;;;;;;3.78;0.73;;;10.30;99.90;;;;;;4963121;28;20089;-70
2023/12/26 10:52:41;;;;;;;3.47;1.25;;;10.30;99.90;;;;;;4965048;28;20034;-68
2023/12/26 10:55:08;;;;;;;3.80;0.90;;;10.30;99.90;;;;;;4961743;28;20031;-73
2023/12/26 10:57:37;;;;;;;2.33;0.90;;;10.20;99.90;;;;;;4965267;28;20026;-69
2023/12/26 11:00:49;;;;;;;2.85;0.70;;;10.20;99.90;;;;;;4956806;28;20035;-71
2023/12/26 13:52:48;;;;;;;0.77;0.40;;;10.30;99.90;;;;;;4935256;29;20503;-71
2023/12/26 13:55:51;;;;;;;1.67;0.60;;;10.30;99.90;;;;;;4935032;29;20102;-71
2023/12/26 13:58:55;;;;;;;0.85;0.70;;;10.20;99.90;;;;;;4950748;29;20039;-72
2023/12/26 14:01:57;;;;;;;1.30;0.73;;;10.10;99.90;;;;;;4941189;29;20058;-71
2023/12/26 14:05:00;;;;;;;2.35;0.80;;;10.10;99.90;;;;;;4945293;29;20046;-70
2023/12/26 14:08:05;;;;;;;1.35;0.77;;;10.10;99.90;;;;;;4951196;29;20106;-70
2023/12/26 14:11:08;;;;;;;1.48;0.75;;;10.10;99.90;;;;;;4946722;29;20095;-68
2023/12/26 14:14:11;;;;;;;1.30;0.88;;;10.10;99.90;;;;;;4938588;29;20090;-72
2023/12/26 14:17:14;;;;;;;2.70;0.90;;;10.10;99.90;;;;;;4963479;28;20058;-71
2023/12/26 14:20:17;;;;;;;1.02;0.80;;;10.10;99.90;;;;;;4956442;28;20134;-72
2023/12/26 14:23:20;;;;;;;2.20;1.05;;;10.20;99.90;;;;;;4962201;28;20504;-72
2023/12/26 14:26:23;;;;;;;0.75;0.47;;;10.20;99.90;;;;;;4966031;28;20023;-72
2023/12/26 14:29:26;;;;;;;2.33;0.68;;;10.10;99.90;;;;;;4956974;28;20023;-73
2023/12/26 14:32:29;;;;;;;1.52;0.50;;;10.10;99.90;;;;;;4964628;28;20019;-72
2023/12/26 14:35:32;;;;;;;1.23;0.55;;;10.00;99.90;;;;;;4961904;28;20416;-70
2023/12/26 14:38:35;;;;;;;1.75;0.60;;;10.00;99.90;;;;;;4968427;28;20030;-68
2023/12/26 14:41:38;;;;;;;1.08;0.57;;;9.90;99.90;;;;;;4962370;28;20023;-72
2023/12/26 14:44:41;;;;;;;2.35;0.77;;;9.90;99.90;;;;;;4966122;28;20045;-71
2023/12/26 14:47:44;;;;;;;2.67;1.08;;;9.90;99.90;;;;;;4966070;28;20126;-71
2023/12/26 14:50:47;;;;;;;2.95;0.75;;;9.80;99.90;;;;;;4967398;28;20357;-70
2023/12/26 14:53:50;;;;;;;2.42;0.60;;;9.80;99.90;;;;;;4969031;28;20050;-71
2023/12/26 14:56:53;;;;;;;2.80;0.75;;;9.80;99.90;;;;;;4961152;28;20023;-72
2023/12/26 14:59:56;;;;;;;1.95;0.90;;;9.70;99.90;;;;;;4966926;28;20039;-70
2023/12/26 15:02:24;;;;;;;3.75;1.00;;;9.70;99.90;;;;;;4956284;28;20039;-70
2023/12/26 15:04:50;;;;;;;0.70;0.60;;;9.60;99.90;;;;;;4965899;28;20488;-71
2023/12/26 15:07:16;;;;;;;3.17;0.82;;;9.60;99.90;;;;;;4970247;28;20035;-74
2023/12/26 15:09:42;;;;;;;1.42;0.63;;;9.60;99.90;;;;;;4967022;28;20034;-72
2023/12/26 15:12:07;;;;;;;0.85;0.80;;;9.50;99.90;;;;;;4964827;28;20038;-70
2023/12/26 15:14:33;;;;;;;2.75;0.85;;;9.50;99.90;;;;;;4966258;28;20027;-69
2023/12/26 15:16:59;;;;;;;0.63;0.60;;;9.50;99.90;;;;;;4972657;28;20058;-71
2023/12/26 15:19:24;;;;;;;2.03;1.05;;;9.50;99.90;;;;;;4964046;28;20030;-71
2023/12/26 15:21:50;;;;;;;1.20;0.90;;;9.40;99.90;;;;;;4955031;28;20058;-71
2023/12/26 15:24:16;;;;;;;3.42;1.10;;;9.40;99.90;;;;;;4973258;28;20027;-73
2023/12/26 15:26:42;;;;;;;2.13;0.88;;;9.40;99.90;;;;;;4972212;28;20033;-70
2023/12/26 15:29:08;;;;;;;1.45;0.90;;;9.40;99.90;;;;;;4964136;28;20109;-71
2023/12/26 15:31:34;;;;;;;5.38;1.23;;;9.40;99.90;;;;;;4970938;28;20596;-69
2023/12/26 15:34:00;;;;;;;2.85;1.02;;;9.30;99.90;;;;;;4973603;28;20102;-71
2023/12/26 15:36:26;;;;;;;1.20;0.82;;;9.30;99.90;;;;;;4962612;28;20031;-69
2023/12/26 15:38:53;;;;;;;3.30;0.95;;;9.30;99.90;;;;;;4970693;28;20038;-70
2023/12/26 15:41:20;;;;;;;2.95;1.38;;;9.30;99.90;;;;;;4968203;28;20031;-69
2023/12/26 15:43:46;;;;;;;1.10;0.90;;;9.30;99.90;;;;;;4968924;28;20468;-72
2023/12/26 15:46:19;;;;;;;1.00;0.90;;;9.30;99.90;;;;;;4966494;28;20034;-70
2023/12/26 15:48:45;;;;;;;2.50;1.00;;;9.30;99.90;;;;;;4964266;28;20027;-70
2023/12/26 15:51:13;;;;;;;1.85;1.10;;;9.30;99.90;;;;;;4972747;28;20102;-69
2023/12/26 15:53:41;;;;;;;1.88;0.70;;;9.30;99.90;;;;;;4965028;28;20035;-80